createdAt,value
2023-03-27T00:01:46.580Z,97428.89
2023-03-27T00:03:50.555Z,97431.56
2023-03-27T00:06:27.659Z,97433.95
2023-03-27T00:08:38.143Z,97439.04
2023-03-27T00:10:41.042Z,97440.86
2023-03-27T00:12:44.416Z,97445.44
2023-03-27T00:14:48.123Z,97453.02
2023-03-27T00:16:51.370Z,97457.67
2023-03-27T00:18:55.230Z,97461.39
2023-03-27T00:20:58.907Z,97467.73
2023-03-27T00:23:02.946Z,97470.34
2023-03-27T00:25:06.074Z,97474.71
2023-03-27T00:27:09.174Z,97480.20
2023-03-27T00:29:13.493Z,97483.80
2023-03-27T00:31:16.864Z,97486.01
2023-03-27T00:33:20.611Z,97487.16
2023-03-27T00:35:24.840Z,97485.80
2023-03-27T00:37:27.770Z,97491.32
2023-03-27T00:39:31.527Z,97495.63
2023-03-27T00:41:38.086Z,97497.48
2023-03-27T00:43:43.955Z,97500.52
2023-03-27T00:45:53.771Z,97500.91
2023-03-27T00:48:08.431Z,97503.02
2023-03-27T00:50:17.653Z,97503.19
2023-03-27T00:52:21.367Z,97509.45
2023-03-27T00:54:30.504Z,97513.02
2023-03-27T00:56:39.678Z,97510.65
2023-03-27T00:58:46.802Z,97520.36
2023-03-27T01:00:53.631Z,97525.35
2023-03-27T01:02:57.584Z,97529.77
2023-03-27T01:05:05.076Z,97529.98
2023-03-27T01:07:11.165Z,97532.49
2023-03-27T01:09:20.817Z,97536.25
2023-03-27T01:12:02.298Z,97542.40
2023-03-27T01:14:44.918Z,97544.41
2023-03-27T01:16:59.571Z,97552.37
2023-03-27T01:19:43.386Z,97557.09
2023-03-27T01:22:16.778Z,97560.20
2023-03-27T01:24:56.421Z,97568.84
2023-03-27T01:27:40.317Z,97571.31
2023-03-27T01:30:04.882Z,97573.43
2023-03-27T01:32:35.889Z,97579.56
2023-03-27T01:34:47.641Z,97580.73
2023-03-27T01:37:30.665Z,97584.15
2023-03-27T01:40:10.530Z,97587.23
2023-03-27T01:42:33.658Z,97589.88
2023-03-27T01:44:49.101Z,97590.48
2023-03-27T01:47:14.720Z,97596.94
2023-03-27T01:49:24.979Z,97600.88
2023-03-27T01:51:43.242Z,97604.66
2023-03-27T01:53:52.529Z,97609.98
2023-03-27T01:56:05.840Z,97616.45
2023-03-27T01:58:14.204Z,97620.53
2023-03-27T02:00:22.615Z,97625.20
2023-03-27T02:02:30.557Z,97630.56
2023-03-27T02:05:04.492Z,97634.16
2023-03-27T02:07:12.457Z,97642.33
2023-03-27T02:09:42.421Z,97646.10
2023-03-27T02:11:51.484Z,97653.16
2023-03-27T02:14:00.628Z,97661.48
2023-03-27T02:16:06.733Z,97664.23
2023-03-27T02:18:19.042Z,97670.70
2023-03-27T02:20:21.739Z,97676.48
2023-03-27T02:22:38.095Z,97678.09
2023-03-27T02:24:44.018Z,97682.42
2023-03-27T02:26:53.111Z,97688.73
2023-03-27T02:29:41.542Z,97694.31
2023-03-27T02:32:20.870Z,97704.30
2023-03-27T02:34:49.270Z,97710.42
2023-03-27T02:37:02.383Z,97718.15
2023-03-27T02:39:58.237Z,97721.17
2023-03-27T02:42:16.033Z,97722.49
2023-03-27T02:44:51.681Z,97729.02
2023-03-27T02:47:11.719Z,97735.95
2023-03-27T02:49:22.072Z,97741.50
2023-03-27T02:51:33.601Z,97746.48
2023-03-27T02:53:46.042Z,97751.64
2023-03-27T02:59:04.023Z,97761.41
2023-03-27T03:01:13.728Z,97761.47
2023-03-27T03:03:53.955Z,97762.69
2023-03-27T03:06:11.342Z,97765.86
2023-03-27T03:08:14.810Z,97765.69
2023-03-27T03:10:17.784Z,97772.72
2023-03-27T03:12:21.443Z,97781.88
2023-03-27T03:14:59.751Z,97782.96
2023-03-27T03:17:02.667Z,97794.16
2023-03-27T03:19:05.384Z,97799.44
2023-03-27T03:21:09.753Z,97798.65
2023-03-27T03:23:12.427Z,97808.75
2023-03-27T03:25:17.824Z,97812.11
2023-03-27T03:27:21.024Z,97813.63
2023-03-27T03:29:40.837Z,97823.97
2023-03-27T03:31:53.382Z,97835.30
2023-03-27T03:34:04.142Z,97842.89
2023-03-27T03:36:18.127Z,97851.88
2023-03-27T03:38:27.054Z,97849.34
2023-03-27T03:40:32.312Z,97854.94
2023-03-27T03:42:39.335Z,97862.06
2023-03-27T03:44:44.363Z,97866.67
2023-03-27T03:47:02.374Z,97868.66
2023-03-27T03:49:06.082Z,97874.24
2023-03-27T03:51:08.689Z,97877.11
2023-03-27T03:53:12.322Z,97885.17
2023-03-27T03:55:16.839Z,97895.02
2023-03-27T03:57:20.855Z,97904.95
2023-03-27T03:59:35.819Z,97912.14
2023-03-27T04:02:00.016Z,97919.27
2023-03-27T04:04:05.920Z,97932.20
2023-03-27T04:06:26.657Z,97942.65
2023-03-27T04:08:43.103Z,97949.80
2023-03-27T04:11:32.012Z,97960.65
2023-03-27T04:14:07.407Z,97971.77
2023-03-27T04:16:17.002Z,97979.27
2023-03-27T04:18:42.005Z,97985.67
2023-03-27T04:20:50.056Z,97988.34
2023-03-27T04:22:57.622Z,97990.17
2023-03-27T04:25:03.232Z,97989.83
2023-03-27T04:27:06.737Z,97992.94
2023-03-27T04:29:16.853Z,97998.15
2023-03-27T04:31:42.595Z,97997.71
2023-03-27T04:34:11.975Z,97999.55
2023-03-27T04:36:18.043Z,98009.88
2023-03-27T04:38:43.612Z,98016.20
2023-03-27T04:40:49.666Z,98019.76
2023-03-27T04:42:56.015Z,98029.29
2023-03-27T04:45:00.234Z,98031.39
2023-03-27T04:47:08.771Z,98037.80
2023-03-27T04:49:11.755Z,98040.61
2023-03-27T04:51:33.164Z,98053.55
2023-03-27T04:53:37.557Z,98060.81
2023-03-27T04:55:41.562Z,98067.26
2023-03-27T04:57:48.064Z,98072.23
2023-03-27T04:59:50.674Z,98077.98
2023-03-27T05:02:16.460Z,98079.08
2023-03-27T05:04:32.235Z,98085.83
2023-03-27T05:06:47.469Z,98095.93
2023-03-27T05:08:52.737Z,98100.48
2023-03-27T05:11:00.899Z,98104.09
2023-03-27T05:13:08.470Z,98110.42
2023-03-27T05:15:12.518Z,98115.35
2023-03-27T05:17:18.239Z,98125.69
2023-03-27T05:19:33.657Z,98135.08
2023-03-27T05:21:40.160Z,98144.08
2023-03-27T05:23:44.914Z,98150.07
2023-03-27T05:25:59.730Z,98157.50
2023-03-27T05:28:11.395Z,98159.25
2023-03-27T05:30:16.617Z,98166.17
2023-03-27T05:32:19.505Z,98169.89
2023-03-27T05:34:27.806Z,98172.52
2023-03-27T05:36:32.042Z,98178.49
2023-03-27T05:38:37.815Z,98180.48
2023-03-27T05:40:47.503Z,98188.29
2023-03-27T05:42:53.666Z,98190.62
2023-03-27T05:44:57.505Z,98198.84
2023-03-27T05:47:02.764Z,98204.73
2023-03-27T05:49:06.445Z,98203.54
2023-03-27T05:51:13.432Z,98208.98
2023-03-27T05:53:28.112Z,98214.70
2023-03-27T05:56:03.247Z,98217.87
2023-03-27T05:58:29.365Z,98231.82
2023-03-27T06:00:35.668Z,98235.52
2023-03-27T06:02:41.030Z,98241.00
2023-03-27T06:04:46.634Z,98247.28
2023-03-27T06:07:04.233Z,98252.08
2023-03-27T06:09:07.863Z,98255.23
2023-03-27T06:11:11.907Z,98262.62
2023-03-27T06:13:26.255Z,98267.66
2023-03-27T06:59:39.242Z,98380.94
2023-03-27T07:01:43.924Z,98382.63
2023-03-27T07:04:05.742Z,98387.92
2023-03-27T07:06:39.507Z,98396.73
2023-03-27T07:09:02.928Z,98402.05
2023-03-27T07:11:25.726Z,98407.69
2023-03-27T07:13:37.478Z,98411.48
2023-03-27T07:15:45.217Z,98423.30
2023-03-27T07:17:53.887Z,98421.36
2023-03-27T07:20:01.451Z,98428.94
2023-03-27T07:22:26.626Z,98430.38
2023-03-27T07:24:37.752Z,98432.59
2023-03-27T07:26:42.533Z,98431.80
2023-03-27T07:29:18.187Z,98433.93
2023-03-27T07:31:54.921Z,98441.70
2023-03-27T07:34:13.300Z,98439.67
2023-03-27T07:36:39.375Z,98444.96
2023-03-27T07:38:51.466Z,98446.78
2023-03-27T07:41:06.739Z,98453.92
2023-03-27T07:43:36.952Z,98463.61
2023-03-27T07:45:46.617Z,98466.19
2023-03-27T07:47:52.846Z,98471.45
2023-03-27T07:59:29.723Z,98502.67
2023-03-27T08:01:58.125Z,98507.95
2023-03-27T08:04:08.708Z,98511.71
2023-03-27T08:06:14.931Z,98514.13
2023-03-27T08:08:19.268Z,98520.17
2023-03-27T08:10:56.948Z,98524.63
2023-03-27T08:13:29.133Z,98527.16
2023-03-27T08:15:27.325Z,98523.54
2023-03-27T08:17:38.945Z,98526.33
2023-03-27T08:19:54.772Z,98528.62
2023-03-27T08:22:09.893Z,98530.30
2023-03-27T08:24:36.113Z,98541.77
2023-03-27T08:26:50.385Z,98539.11
2023-03-27T08:28:56.153Z,98544.52
2023-03-27T08:31:20.732Z,98535.98
2023-03-27T08:33:24.038Z,98548.11
2023-03-27T08:35:27.160Z,98545.70
2023-03-27T08:37:43.956Z,98546.81
2023-03-27T08:40:20.549Z,98548.98
2023-03-27T08:42:37.379Z,98555.75
2023-03-27T08:44:40.486Z,98564.01
2023-03-27T08:46:59.828Z,98571.83
2023-03-27T08:49:37.727Z,98571.52
2023-03-27T08:52:00.778Z,98572.13
2023-03-27T08:54:18.230Z,98572.25
2023-03-27T08:56:21.671Z,98582.52
2023-03-27T08:58:38.255Z,98576.89
2023-03-27T09:01:07.197Z,98586.73
2023-03-27T09:03:22.422Z,98585.43
2023-03-27T09:05:35.996Z,98589.69
2023-03-27T09:08:06.587Z,98592.09
2023-03-27T09:10:45.551Z,98590.20
2023-03-27T09:59:24.071Z,98645.56
2023-03-27T10:01:34.643Z,98638.98
2023-03-27T10:03:53.017Z,98644.65
2023-03-27T10:06:14.204Z,98640.09
2023-03-27T10:08:46.008Z,98648.02
2023-03-27T10:11:08.068Z,98638.84
2023-03-27T10:13:29.427Z,98641.05
2023-03-27T10:15:39.749Z,98642.69
2023-03-27T10:17:48.404Z,98643.61
2023-03-27T10:20:15.889Z,98648.95
2023-03-27T10:22:31.526Z,98651.69
2023-03-27T10:24:45.941Z,98654.73
2023-03-27T10:27:29.694Z,98656.80
2023-03-27T10:29:58.762Z,98657.89
2023-03-27T10:32:07.463Z,98654.83
2023-03-27T10:34:42.038Z,98661.81
2023-03-27T10:37:28.970Z,98663.13
2023-03-27T10:39:44.746Z,98663.41
2023-03-27T10:41:54.176Z,98665.63
2023-03-27T10:43:58.202Z,98669.67
2023-03-27T10:46:06.074Z,98673.50
2023-03-27T10:48:10.265Z,98671.08
2023-03-27T10:50:25.290Z,98670.02
2023-03-27T10:52:48.419Z,98677.75
2023-03-27T10:55:23.238Z,98674.51
2023-03-27T10:57:30.761Z,98669.79
2023-03-27T10:59:44.343Z,98677.90
2023-03-27T11:02:01.660Z,98675.17
2023-03-27T11:04:23.351Z,98672.77
2023-03-27T11:06:41.083Z,98687.15
2023-03-27T11:09:05.687Z,98687.23
2023-03-27T11:11:22.593Z,98684.70
2023-03-27T11:13:42.483Z,98684.62
2023-03-27T11:16:23.975Z,98688.41
2023-03-27T11:18:54.206Z,98692.46
2023-03-27T11:21:05.292Z,98691.30
2023-03-27T11:23:20.725Z,98685.61
2023-03-27T11:25:53.604Z,98693.02
2023-03-27T11:28:48.793Z,98695.93
2023-03-27T11:30:58.524Z,98690.42
2023-03-27T11:33:31.094Z,98692.20
2023-03-27T11:36:16.033Z,98701.93
2023-03-27T11:38:35.741Z,98706.91
2023-03-27T11:40:50.247Z,98700.89
2023-03-27T11:42:54.245Z,98706.58
2023-03-27T11:45:00.350Z,98701.40
2023-03-27T11:47:42.401Z,98703.32
2023-03-27T11:50:29.455Z,98700.00
2023-03-27T11:53:09.525Z,98703.73
2023-03-27T11:55:49.264Z,98702.01
2023-03-27T11:58:32.216Z,98705.56
2023-03-27T12:00:42.555Z,98703.40
2023-03-27T12:02:55.689Z,98702.66
2023-03-27T12:05:26.310Z,98707.14
2023-03-27T12:08:08.045Z,98706.83
2023-03-27T12:10:29.116Z,98709.26
2023-03-27T12:13:00.129Z,98711.75
2023-03-27T12:15:29.218Z,98702.64
2023-03-27T12:17:44.781Z,98696.17
2023-03-27T12:20:19.172Z,98699.67
2023-03-27T12:22:53.485Z,98700.00
2023-03-27T12:25:26.483Z,98697.23
2023-03-27T12:28:23.216Z,98697.77
2023-03-27T12:30:52.154Z,98699.01
2023-03-27T12:33:28.281Z,98699.17
2023-03-27T12:35:33.980Z,98701.30
2023-03-27T12:37:46.463Z,98700.29
2023-03-27T12:39:52.200Z,98705.54
2023-03-27T12:41:54.927Z,98702.48
2023-03-27T12:44:26.236Z,98699.25
2023-03-27T12:46:39.073Z,98705.76
2023-03-27T12:48:54.147Z,98706.23
2023-03-27T12:50:59.539Z,98706.52
2023-03-27T12:53:04.476Z,98710.23
2023-03-27T12:55:13.944Z,98705.02
2023-03-27T12:57:48.592Z,98708.41
2023-03-27T13:00:00.730Z,98704.84
2023-03-27T13:02:08.475Z,98707.30
2023-03-27T13:04:53.341Z,98705.41
2023-03-27T13:07:23.272Z,98709.31
2023-03-27T13:10:04.929Z,98711.02
2023-03-27T13:12:46.321Z,98713.05
2023-03-27T13:15:35.600Z,98712.69
2023-03-27T13:17:57.138Z,98713.23
2023-03-27T13:20:37.276Z,98718.57
2023-03-27T13:22:58.585Z,98714.77
2023-03-27T13:25:33.797Z,98717.00
2023-03-27T13:28:03.759Z,98712.48
2023-03-27T13:30:46.986Z,98714.13
2023-03-27T13:33:13.952Z,98716.36
2023-03-27T13:35:21.270Z,98727.82
2023-03-27T13:37:36.965Z,98733.98
2023-03-27T13:39:55.995Z,98735.09
2023-03-27T13:42:08.961Z,98738.52
2023-03-27T13:44:41.939Z,98730.09
2023-03-27T13:46:54.180Z,98733.56
2023-03-27T13:49:41.963Z,98740.17
2023-03-27T13:52:00.638Z,98745.20
2023-03-27T13:54:24.797Z,98741.45
2023-03-27T13:56:42.484Z,98749.13
2023-03-27T13:59:26.214Z,98739.39
2023-03-27T14:01:49.693Z,98743.48
2023-03-27T14:04:17.286Z,98740.33
2023-03-27T14:07:02.298Z,98733.89
2023-03-27T14:09:25.334Z,98734.80
2023-03-27T14:11:51.028Z,98734.25
2023-03-27T14:14:52.503Z,98739.39
2023-03-27T14:17:34.898Z,98744.18
2023-03-27T14:19:38.017Z,98765.47
2023-03-27T14:22:05.827Z,98775.22
2023-03-27T14:24:30.502Z,98779.45
2023-03-27T14:26:46.142Z,98780.88
2023-03-27T14:28:53.389Z,98778.56
2023-03-27T14:31:08.269Z,98783.14
2023-03-27T14:33:23.018Z,98781.17
2023-03-27T14:37:46.070Z,98788.64
2023-03-27T14:40:23.232Z,98790.11
2023-03-27T14:42:33.043Z,98796.15
2023-03-27T14:44:36.414Z,98789.00
2023-03-27T14:46:55.184Z,98787.61
2023-03-27T14:49:00.257Z,98788.95
2023-03-27T14:51:10.719Z,98794.17
2023-03-27T14:53:18.731Z,98796.43
2023-03-27T14:55:42.870Z,98796.85
2023-03-27T14:58:19.868Z,98799.52
2023-03-27T15:00:26.216Z,98801.75
2023-03-27T15:02:34.957Z,98803.95
2023-03-27T15:04:43.969Z,98806.53
2023-03-27T15:06:50.053Z,98802.93
2023-03-27T15:09:17.371Z,98804.01
2023-03-27T15:11:48.381Z,98805.25
2023-03-27T15:13:57.789Z,98802.83
2023-03-27T15:16:09.649Z,98802.75
2023-03-27T15:18:32.144Z,98802.92
2023-03-27T15:20:37.318Z,98794.80
2023-03-27T15:22:48.498Z,98790.82
2023-03-27T15:25:07.620Z,98789.33
2023-03-27T15:27:28.016Z,98788.16
2023-03-27T15:29:39.712Z,98789.98
2023-03-27T15:31:52.943Z,98787.93
2023-03-27T15:34:10.096Z,98788.09
2023-03-27T15:36:28.049Z,98786.70
2023-03-27T15:38:34.917Z,98787.59
2023-03-27T15:40:43.133Z,98780.36
2023-03-27T15:42:54.339Z,98786.98
2023-03-27T15:45:02.541Z,98790.20
2023-03-27T15:47:24.686Z,98788.14
2023-03-27T15:49:34.222Z,98783.15
2023-03-27T15:51:37.063Z,98781.19
2023-03-27T15:53:53.486Z,98789.73
2023-03-27T15:55:57.335Z,98796.45
2023-03-27T15:58:13.131Z,98794.84
2023-03-27T16:00:16.752Z,98793.23
2023-03-27T16:02:20.618Z,98798.48
2023-03-27T16:04:28.310Z,98797.38
2023-03-27T16:06:36.970Z,98800.16
2023-03-27T16:08:47.405Z,98798.98
2023-03-27T16:10:50.998Z,98802.52
2023-03-27T16:13:03.128Z,98793.49
2023-03-27T16:15:08.438Z,98799.02
2023-03-27T16:17:22.307Z,98798.83
2023-03-27T16:19:25.389Z,98798.16
2023-03-27T16:21:29.973Z,98798.99
2023-03-27T16:23:34.234Z,98795.13
2023-03-27T16:25:39.414Z,98796.55
2023-03-27T16:27:49.290Z,98795.85
2023-03-27T16:29:53.542Z,98802.40
2023-03-27T16:31:58.684Z,98806.91
2023-03-27T16:34:02.528Z,98810.45
2023-03-27T16:36:07.819Z,98817.77
2023-03-27T16:38:10.569Z,98823.65
2023-03-27T16:40:14.767Z,98829.05
2023-03-27T16:42:25.815Z,98834.01
2023-03-27T16:44:29.867Z,98843.76
2023-03-27T16:46:35.056Z,98852.79
2023-03-27T16:48:38.574Z,98855.14
2023-03-27T16:50:41.262Z,98852.25
2023-03-27T16:52:44.135Z,98858.43
2023-03-27T16:54:47.797Z,98866.64
2023-03-27T16:56:52.531Z,98873.40
2023-03-27T16:58:55.705Z,98881.52
2023-03-27T17:00:59.783Z,98902.89
2023-03-27T17:03:03.101Z,98922.64
2023-03-27T17:05:08.752Z,98940.11
2023-03-27T17:07:20.061Z,98931.11
2023-03-27T17:09:23.394Z,98917.04
2023-03-27T17:11:26.049Z,98911.30
2023-03-27T17:13:28.975Z,98909.27
2023-03-27T17:15:36.105Z,98916.61
2023-03-27T17:17:39.922Z,98923.06
2023-03-27T17:19:42.636Z,98921.69
2023-03-27T17:21:45.453Z,98923.56
2023-03-27T17:23:48.723Z,98922.83
2023-03-27T17:25:52.131Z,98926.48
2023-03-27T17:27:55.555Z,98925.60
2023-03-27T17:30:01.430Z,98932.77
2023-03-27T17:32:04.913Z,98942.39
2023-03-27T17:34:10.008Z,98946.58
2023-03-27T17:36:26.843Z,98957.94
2023-03-27T17:38:35.068Z,98969.86
2023-03-27T17:40:42.225Z,98974.64
2023-03-27T17:42:48.496Z,98982.46
2023-03-27T17:44:54.710Z,98997.71
2023-03-27T17:47:00.503Z,99005.74
2023-03-27T17:49:13.918Z,99027.11
2023-03-27T17:51:18.892Z,99044.50
2023-03-27T17:53:23.645Z,99049.73
2023-03-27T17:55:26.614Z,99050.73
2023-03-27T17:57:44.210Z,99051.55
2023-03-27T17:59:48.823Z,99050.73
2023-03-27T18:01:51.834Z,99050.48
2023-03-27T18:03:55.467Z,99039.45
2023-03-27T18:06:05.072Z,99038.46
2023-03-27T18:08:14.356Z,99039.05
2023-03-27T18:10:19.146Z,99039.46
2023-03-27T18:12:22.938Z,99047.41
2023-03-27T18:14:26.468Z,99049.57
2023-03-27T18:16:29.482Z,99050.42
2023-03-27T18:18:38.799Z,99054.44
2023-03-27T18:20:50.612Z,99056.79
2023-03-27T18:22:55.988Z,99059.40
2023-03-27T18:25:00.836Z,99066.73
2023-03-27T18:27:03.945Z,99066.38
2023-03-27T18:29:07.514Z,99066.34
2023-03-27T18:31:12.896Z,99066.71
2023-03-27T18:33:15.804Z,99069.66
2023-03-27T18:35:20.104Z,99075.70
2023-03-27T18:37:22.654Z,99078.92
2023-03-27T18:39:27.778Z,99084.17
2023-03-27T18:41:33.293Z,99084.79
2023-03-27T18:43:39.611Z,99092.30
2023-03-27T18:45:42.757Z,99095.52
2023-03-27T18:47:47.640Z,99100.44
2023-03-27T18:49:59.962Z,99107.13
2023-03-27T18:52:03.763Z,99116.31
2023-03-27T18:54:07.915Z,99123.52
2023-03-27T18:56:12.336Z,99129.98
2023-03-27T18:58:15.063Z,99134.04
2023-03-27T19:00:18.443Z,99132.42
2023-03-27T19:02:22.459Z,99136.48
2023-03-27T19:04:25.670Z,99129.30
2023-03-27T19:06:36.503Z,99130.95
2023-03-27T19:08:43.758Z,99125.81
2023-03-27T19:10:46.365Z,99128.14
2023-03-27T19:13:13.573Z,99128.40
2023-03-27T19:15:43.831Z,99120.11
2023-03-27T19:18:10.264Z,99119.61
2023-03-27T19:20:36.839Z,99117.22
2023-03-27T19:23:17.565Z,99115.70
2023-03-27T19:25:25.820Z,99118.59
2023-03-27T19:27:38.657Z,99120.34
2023-03-27T19:29:46.798Z,99123.73
2023-03-27T19:31:49.711Z,99125.08
2023-03-27T19:33:55.310Z,99121.11
2023-03-27T19:35:58.436Z,99121.35
2023-03-27T19:38:01.567Z,99128.56
2023-03-27T19:40:08.387Z,99132.42
2023-03-27T19:42:11.213Z,99139.96
2023-03-27T19:44:16.741Z,99142.98
2023-03-27T19:46:19.764Z,99147.23
2023-03-27T19:48:24.845Z,99145.52
2023-03-27T19:50:28.979Z,99145.02
2023-03-27T19:52:54.491Z,99139.52
2023-03-27T19:55:10.124Z,99136.75
2023-03-27T19:57:12.813Z,99139.08
2023-03-27T19:59:29.942Z,99145.89
2023-03-27T20:01:37.435Z,99149.73
2023-03-27T20:03:42.344Z,99152.97
2023-03-27T20:05:49.314Z,99154.44
2023-03-27T20:07:51.962Z,99153.21
2023-03-27T20:09:55.189Z,99157.05
2023-03-27T20:11:58.172Z,99161.09
2023-03-27T20:14:02.364Z,99161.95
2023-03-27T20:16:06.262Z,99161.17
2023-03-27T20:18:11.427Z,99164.40
2023-03-27T20:20:15.553Z,99164.21
2023-03-27T20:22:20.726Z,99164.29
2023-03-27T20:24:25.086Z,99163.55
2023-03-27T20:26:39.215Z,99162.00
2023-03-27T20:28:55.615Z,99165.83
2023-03-27T20:31:03.558Z,99162.21
2023-03-27T20:33:06.332Z,99164.98
2023-03-27T20:35:20.719Z,99166.20
2023-03-27T20:37:32.918Z,99168.74
2023-03-27T20:39:47.158Z,99169.95
2023-03-27T20:41:58.928Z,99176.30
2023-03-27T20:44:05.310Z,99177.67
2023-03-27T20:46:13.465Z,99178.45
2023-03-27T20:48:19.197Z,99175.00
2023-03-27T20:50:24.126Z,99175.89
2023-03-27T20:52:30.223Z,99176.45
2023-03-27T20:54:34.741Z,99172.09
2023-03-27T20:56:37.227Z,99175.86
2023-03-27T20:58:41.749Z,99177.17
2023-03-27T21:00:45.209Z,99175.46
2023-03-27T21:02:49.041Z,99180.04
2023-03-27T21:04:51.754Z,99184.98
2023-03-27T21:06:58.702Z,99180.93
2023-03-27T21:09:13.855Z,99185.52
2023-03-27T21:11:17.075Z,99184.32
2023-03-27T21:13:21.484Z,99185.64
2023-03-27T21:15:24.569Z,99189.98
2023-03-27T21:17:27.234Z,99188.52
2023-03-27T21:19:30.032Z,99194.45
2023-03-27T21:21:33.370Z,99194.80
2023-03-27T21:23:36.991Z,99194.12
2023-03-27T21:25:40.952Z,99195.11
2023-03-27T21:27:44.110Z,99195.83
2023-03-27T21:29:46.906Z,99189.72
2023-03-27T21:31:55.312Z,99190.19
2023-03-27T21:34:01.229Z,99189.38
2023-03-27T21:36:05.471Z,99189.98
2023-03-27T21:38:08.003Z,99187.58
2023-03-27T21:40:11.623Z,99187.66
2023-03-27T21:42:16.452Z,99185.09
2023-03-27T21:44:18.942Z,99187.98
2023-03-27T21:46:22.232Z,99189.20
2023-03-27T21:48:26.137Z,99189.81
2023-03-27T21:50:30.530Z,99184.59
2023-03-27T21:52:34.735Z,99184.55
2023-03-27T21:54:37.624Z,99186.50
2023-03-27T21:56:40.327Z,99188.14
2023-03-27T21:58:42.962Z,99188.70
2023-03-27T22:00:46.405Z,99197.61
2023-03-27T22:02:57.494Z,99204.13
2023-03-27T22:05:00.435Z,99202.01
2023-03-27T22:07:05.368Z,99200.93
2023-03-27T22:09:07.919Z,99207.52
2023-03-27T22:11:12.683Z,99200.60
2023-03-27T22:13:18.524Z,99208.27
2023-03-27T22:15:21.081Z,99209.26
2023-03-27T22:17:23.699Z,99213.38
2023-03-27T22:19:30.401Z,99213.10
2023-03-27T22:21:33.268Z,99214.14
2023-03-27T22:23:36.074Z,99214.16
2023-03-27T22:25:38.699Z,99216.13
2023-03-27T22:27:47.245Z,99209.46
2023-03-27T22:29:49.773Z,99215.74
2023-03-27T22:31:53.877Z,99214.72
2023-03-27T22:33:58.750Z,99219.34
2023-03-27T22:36:01.602Z,99220.12
2023-03-27T22:38:06.261Z,99219.48
2023-03-27T22:40:09.349Z,99216.71
2023-03-27T22:42:11.871Z,99221.27
2023-03-27T22:44:14.926Z,99218.92
2023-03-27T22:46:20.792Z,99220.20
2023-03-27T22:48:23.371Z,99221.58
2023-03-27T22:50:31.351Z,99231.46
2023-03-27T22:52:35.869Z,99233.61
2023-03-27T22:54:41.374Z,99236.29
2023-03-27T22:56:45.616Z,99239.27
2023-03-27T22:58:50.195Z,99242.41
2023-03-27T23:00:56.314Z,99242.69
2023-03-27T23:02:59.926Z,99244.48
2023-03-27T23:05:04.466Z,99245.95
2023-03-27T23:07:07.256Z,99246.56
2023-03-27T23:09:14.589Z,99249.17
2023-03-27T23:11:18.092Z,99248.48
2023-03-27T23:13:22.225Z,99250.46
2023-03-27T23:15:29.873Z,99252.30
2023-03-27T23:17:33.589Z,99250.60
2023-03-27T23:19:36.087Z,99253.69
2023-03-27T23:21:40.065Z,99255.05
2023-03-27T23:23:42.877Z,99257.30
2023-03-27T23:25:45.621Z,99254.55
2023-03-27T23:27:48.497Z,99255.80
2023-03-27T23:29:52.065Z,99257.33
2023-03-27T23:31:54.751Z,99259.73
2023-03-27T23:33:58.540Z,99263.08
2023-03-27T23:36:09.220Z,99266.45
2023-03-27T23:38:13.030Z,99269.38
2023-03-27T23:40:17.784Z,99269.73
2023-03-27T23:42:20.366Z,99266.93
2023-03-27T23:44:23.629Z,99270.81
2023-03-27T23:46:26.998Z,99271.98
2023-03-27T23:48:31.605Z,99271.36
2023-03-27T23:50:34.134Z,99272.05
2023-03-27T23:52:38.041Z,99273.84
2023-03-27T23:54:42.154Z,99274.18
2023-03-27T23:56:46.077Z,99276.63
2023-03-27T23:58:48.874Z,99278.11
